Time;durP1;ratioP1;P1;durP2;ratioP2;P2;SDS_P1;SDS_P2;PMS_P1;PMS_P2;Temp;Humidity;BMP_temperature;BMP_pressure;BME280_temperature;BME280_humidity;BME280_pressure;Samples;Min_cycle;Max_cycle;Signal;HPM_P1;HPM_P2
2021/09/26 00:00:32;;;;;;;24.92;17.65;;;16.20;92.00;;;;;;5039965;28;20067;-77
2021/09/26 00:02:57;;;;;;;26.88;18.85;;;16.10;92.00;;;;;;5036068;28;20140;-77
2021/09/26 00:05:23;;;;;;;22.13;16.50;;;16.10;92.00;;;;;;5033381;28;20018;-77
2021/09/26 00:07:49;;;;;;;24.20;17.65;;;16.00;92.00;;;;;;5033067;28;20033;-78
2021/09/26 00:10:14;;;;;;;24.45;17.77;;;16.00;92.00;;;;;;5032350;28;20403;-77
2021/09/26 00:12:41;;;;;;;27.85;19.52;;;16.00;92.00;;;;;;5033872;28;20045;-79
2021/09/26 00:15:18;;;;;;;27.35;19.42;;;16.00;92.10;;;;;;5044619;28;20021;-80
2021/09/26 00:17:44;;;;;;;25.77;18.48;;;16.00;92.10;;;;;;5048092;28;20017;-79
2021/09/26 00:20:10;;;;;;;20.98;14.70;;;16.00;92.00;;;;;;5033908;28;20385;-79
2021/09/26 00:22:37;;;;;;;22.15;15.55;;;16.00;92.10;;;;;;5032382;28;20084;-77
2021/09/26 00:25:03;;;;;;;26.63;18.67;;;15.90;92.00;;;;;;5032771;28;20029;-78
2021/09/26 00:27:29;;;;;;;25.50;17.17;;;15.90;92.10;;;;;;5033419;28;20087;-78
2021/09/26 00:29:55;;;;;;;26.92;17.58;;;15.90;92.10;;;;;;5032946;28;20037;-77
2021/09/26 00:32:20;;;;;;;22.35;15.93;;;15.90;92.20;;;;;;5031713;28;20462;-78
2021/09/26 00:34:49;;;;;;;29.10;18.38;;;15.80;92.10;;;;;;5031871;28;20083;-78
2021/09/26 00:37:15;;;;;;;26.98;17.50;;;15.90;92.20;;;;;;5031452;28;20080;-79
2021/09/26 00:39:41;;;;;;;27.92;18.88;;;15.90;92.40;;;;;;5031959;28;20071;-79
2021/09/26 00:42:06;;;;;;;26.48;17.80;;;15.90;92.20;;;;;;5032049;28;20021;-78
2021/09/26 00:44:32;;;;;;;27.88;19.02;;;15.80;92.20;;;;;;5031639;28;20462;-77
2021/09/26 00:46:58;;;;;;;26.75;17.75;;;15.80;92.20;;;;;;5031253;28;20041;-77
2021/09/26 00:49:25;;;;;;;23.33;17.50;;;15.80;92.20;;;;;;5032483;28;20025;-78
2021/09/26 00:51:51;;;;;;;27.52;18.88;;;15.70;92.20;;;;;;5040284;28;20029;-77
2021/09/26 00:54:19;;;;;;;28.75;19.15;;;15.70;92.30;;;;;;5031937;28;20366;-79
2021/09/26 00:56:47;;;;;;;27.17;16.95;;;15.70;92.30;;;;;;5032077;28;20386;-79
2021/09/26 00:59:14;;;;;;;26.27;18.58;;;15.80;92.30;;;;;;5034633;28;20033;-78
2021/09/26 01:01:40;;;;;;;28.77;19.98;;;15.60;92.30;;;;;;5037261;28;20072;-78
2021/09/26 01:04:06;;;;;;;24.58;17.15;;;15.70;92.30;;;;;;5035616;28;20025;-77
2021/09/26 01:06:40;;;;;;;26.88;18.40;;;15.70;92.40;;;;;;5035008;28;20052;-76
2021/09/26 01:09:33;;;;;;;26.05;18.65;;;15.60;92.30;;;;;;5035659;28;20034;-75
2021/09/26 01:12:12;;;;;;;28.02;20.52;;;15.60;92.40;;;;;;5034512;28;20508;-74
2021/09/26 01:14:49;;;;;;;29.73;20.35;;;15.60;92.50;;;;;;5035526;28;20017;-75
2021/09/26 01:17:30;;;;;;;23.15;16.58;;;15.60;92.60;;;;;;5034524;28;20026;-75
2021/09/26 01:20:35;;;;;;;33.95;21.83;;;15.50;92.50;;;;;;5034156;28;20021;-75
2021/09/26 01:23:04;;;;;;;26.60;18.55;;;15.50;92.60;;;;;;5034902;28;20037;-77
2021/09/26 01:25:39;;;;;;;22.98;16.23;;;15.50;92.60;;;;;;5033962;28;20111;-76
2021/09/26 01:28:17;;;;;;;24.63;16.90;;;15.40;92.60;;;;;;5042647;28;20027;-77
2021/09/26 01:31:05;;;;;;;27.02;18.42;;;15.40;92.60;;;;;;5035690;28;20029;-76
2021/09/26 01:33:41;;;;;;;29.00;20.10;;;15.30;92.60;;;;;;5034206;28;20028;-76
2021/09/26 01:36:16;;;;;;;27.58;18.98;;;15.30;92.80;;;;;;5035701;28;20026;-77
2021/09/26 01:39:02;;;;;;;19.48;13.07;;;15.30;92.80;;;;;;5038745;28;20037;-76
2021/09/26 01:41:47;;;;;;;27.35;19.60;;;15.30;92.80;;;;;;5048271;28;20028;-75
2021/09/26 01:44:20;;;;;;;26.88;18.08;;;15.30;92.80;;;;;;5046991;28;20104;-75
2021/09/26 01:46:50;;;;;;;23.35;16.05;;;15.30;92.90;;;;;;5040213;28;20013;-73
2021/09/26 01:49:21;;;;;;;28.93;21.27;;;15.30;92.90;;;;;;5036312;28;20108;-74
2021/09/26 01:51:48;;;;;;;23.38;16.08;;;15.20;93.00;;;;;;5039534;28;20025;-75
2021/09/26 01:54:16;;;;;;;29.00;19.08;;;15.20;92.90;;;;;;5033808;28;20017;-75
2021/09/26 01:56:44;;;;;;;30.15;20.80;;;15.20;92.90;;;;;;5033382;28;20017;-76
2021/09/26 01:59:15;;;;;;;25.80;16.52;;;15.20;93.00;;;;;;5033178;28;20128;-76
2021/09/26 02:01:43;;;;;;;32.25;20.33;;;15.20;92.90;;;;;;5033345;28;20022;-76
2021/09/26 02:04:09;;;;;;;24.65;16.00;;;15.20;93.30;;;;;;5034711;28;20030;-75
2021/09/26 02:06:40;;;;;;;24.17;16.83;;;15.20;92.90;;;;;;5034888;28;20108;-75
2021/09/26 02:09:10;;;;;;;27.70;18.67;;;15.20;92.90;;;;;;5033290;28;20033;-76
2021/09/26 02:11:37;;;;;;;30.13;20.42;;;15.20;93.20;;;;;;5032763;28;20382;-75
2021/09/26 02:14:04;;;;;;;36.25;23.13;;;15.20;93.00;;;;;;5034916;28;20022;-75
2021/09/26 02:16:31;;;;;;;32.35;22.33;;;15.20;93.10;;;;;;5034959;28;20470;-75
2021/09/26 02:18:57;;;;;;;28.85;19.40;;;15.20;93.20;;;;;;5039792;28;20103;-76
2021/09/26 02:21:25;;;;;;;32.13;21.85;;;15.10;93.20;;;;;;5040520;28;20113;-77
2021/09/26 02:23:51;;;;;;;28.60;16.17;;;15.20;93.20;;;;;;5034751;28;20025;-76
2021/09/26 02:26:17;;;;;;;28.75;18.52;;;15.20;93.20;;;;;;5033440;28;20083;-76
2021/09/26 02:28:43;;;;;;;27.95;16.95;;;15.20;93.20;;;;;;5032896;28;20041;-77
2021/09/26 02:31:09;;;;;;;29.52;20.60;;;15.10;93.00;;;;;;5034317;28;20121;-76
2021/09/26 02:33:36;;;;;;;33.40;21.00;;;15.20;93.00;;;;;;5033205;28;20049;-77
2021/09/26 02:36:05;;;;;;;30.90;21.98;;;15.10;93.00;;;;;;5033228;28;20095;-76
2021/09/26 02:38:31;;;;;;;28.88;18.27;;;15.20;93.10;;;;;;5033845;28;20029;-77
2021/09/26 02:41:27;;;;;;;29.80;19.90;;;15.10;93.10;;;;;;5034473;28;20101;-76
2021/09/26 02:44:25;;;;;;;32.25;19.80;;;15.20;93.20;;;;;;5032748;28;20021;-75
2021/09/26 02:46:57;;;;;;;30.17;20.25;;;15.10;93.10;;;;;;5032716;28;20402;-77
2021/09/26 02:49:23;;;;;;;34.03;22.30;;;15.10;93.20;;;;;;5033725;28;20033;-76
2021/09/26 02:51:51;;;;;;;26.05;18.35;;;15.10;93.20;;;;;;5034023;28;20021;-75
2021/09/26 02:54:17;;;;;;;30.85;20.48;;;15.10;93.30;;;;;;5033741;28;20075;-76
2021/09/26 02:56:44;;;;;;;32.55;21.90;;;15.10;93.20;;;;;;5033830;28;20029;-75
2021/09/26 02:59:10;;;;;;;28.88;19.33;;;15.00;93.20;;;;;;5032293;28;20033;-79
2021/09/26 03:01:50;;;;;;;26.92;20.52;;;15.10;93.20;;;;;;5032412;28;20045;-75
2021/09/26 03:04:16;;;;;;;32.88;22.02;;;15.10;93.20;;;;;;5032889;28;20014;-76
2021/09/26 03:06:42;;;;;;;30.58;21.70;;;15.10;93.30;;;;;;5033799;28;20139;-75
2021/09/26 03:09:07;;;;;;;30.15;21.45;;;15.10;93.30;;;;;;5033346;28;20497;-75
2021/09/26 03:11:33;;;;;;;29.13;20.40;;;15.10;93.30;;;;;;5033402;28;20057;-76
2021/09/26 03:13:58;;;;;;;36.35;22.90;;;15.10;93.50;;;;;;5033357;28;20519;-76
2021/09/26 03:16:24;;;;;;;29.75;21.27;;;15.10;93.30;;;;;;5032970;28;20022;-77
2021/09/26 03:18:49;;;;;;;31.35;21.65;;;15.10;93.30;;;;;;5033786;28;20037;-75
2021/09/26 03:21:15;;;;;;;31.40;21.35;;;15.10;93.20;;;;;;5031531;28;20026;-76
2021/09/26 03:23:41;;;;;;;33.15;21.70;;;15.10;93.20;;;;;;5031660;28;20018;-76
2021/09/26 03:26:08;;;;;;;28.15;19.13;;;15.10;93.30;;;;;;5033673;28;20063;-75
2021/09/26 03:28:34;;;;;;;31.50;21.33;;;15.00;93.20;;;;;;5032822;28;20026;-75
2021/09/26 03:30:59;;;;;;;29.90;21.70;;;15.10;93.20;;;;;;5037041;28;20029;-76
2021/09/26 03:33:25;;;;;;;33.97;22.17;;;15.10;93.30;;;;;;5042290;28;20104;-78
2021/09/26 03:35:50;;;;;;;22.30;16.73;;;15.10;93.30;;;;;;5038463;28;20022;-73
2021/09/26 03:38:16;;;;;;;28.40;21.02;;;15.10;93.30;;;;;;5036693;28;20037;-74
2021/09/26 03:40:42;;;;;;;32.22;21.65;;;15.10;93.20;;;;;;5052214;28;20017;-74
2021/09/26 03:43:07;;;;;;;31.17;20.85;;;15.10;93.20;;;;;;5036171;28;20033;-77
2021/09/26 03:45:33;;;;;;;28.27;21.08;;;15.10;93.20;;;;;;5033062;28;20104;-76
2021/09/26 03:47:59;;;;;;;28.98;20.10;;;15.10;93.20;;;;;;5032662;28;20033;-76
2021/09/26 03:50:25;;;;;;;31.38;22.52;;;15.10;93.20;;;;;;5031840;28;20034;-75
2021/09/26 03:52:50;;;;;;;35.95;24.13;;;15.10;93.20;;;;;;5033257;28;20446;-76
2021/09/26 03:55:16;;;;;;;27.02;19.73;;;15.10;93.20;;;;;;5031751;28;20029;-75
2021/09/26 03:57:42;;;;;;;27.85;19.92;;;15.10;93.50;;;;;;5031093;28;20137;-76
2021/09/26 04:00:12;;;;;;;33.72;23.45;;;15.10;93.20;;;;;;5032621;28;20025;-76
2021/09/26 04:02:38;;;;;;;32.30;21.77;;;15.20;93.20;;;;;;5030628;28;20013;-75
2021/09/26 04:05:04;;;;;;;29.48;21.33;;;15.10;93.20;;;;;;5032700;28;20097;-75
2021/09/26 04:07:30;;;;;;;35.45;23.38;;;15.10;93.20;;;;;;5032337;28;20454;-76
2021/09/26 04:09:55;;;;;;;36.45;24.35;;;15.20;93.30;;;;;;5030878;28;20033;-75
2021/09/26 04:12:22;;;;;;;27.33;20.10;;;15.20;93.30;;;;;;5032410;28;20076;-76
2021/09/26 04:14:47;;;;;;;32.15;20.08;;;15.20;93.30;;;;;;5031273;28;20459;-75
2021/09/26 04:17:13;;;;;;;31.42;22.40;;;15.20;93.20;;;;;;5031420;28;20033;-74
2021/09/26 04:19:38;;;;;;;31.73;22.02;;;15.20;93.20;;;;;;5032738;28;20029;-74
2021/09/26 04:22:04;;;;;;;26.90;19.30;;;15.20;93.20;;;;;;5038107;28;20153;-73
2021/09/26 04:24:30;;;;;;;28.20;19.02;;;15.20;93.20;;;;;;5044507;28;20022;-75
2021/09/26 04:26:55;;;;;;;36.45;23.42;;;15.20;93.20;;;;;;5031239;28;20030;-76
2021/09/26 04:29:21;;;;;;;30.33;21.77;;;15.20;93.20;;;;;;5031396;28;20390;-76
2021/09/26 04:31:47;;;;;;;31.20;21.67;;;15.20;93.30;;;;;;5032263;28;20120;-77
2021/09/26 04:34:12;;;;;;;24.17;18.45;;;15.20;93.30;;;;;;5034163;28;20462;-76
2021/09/26 04:36:38;;;;;;;28.50;19.63;;;15.20;93.30;;;;;;5034644;28;20028;-75
2021/09/26 04:39:04;;;;;;;30.17;19.52;;;15.30;93.30;;;;;;5036465;28;20057;-75
2021/09/26 04:41:30;;;;;;;28.75;19.98;;;15.20;93.20;;;;;;5035927;28;20051;-75
2021/09/26 04:43:56;;;;;;;31.42;20.38;;;15.30;93.30;;;;;;5034721;28;20022;-75
2021/09/26 04:46:22;;;;;;;30.50;21.67;;;15.20;93.20;;;;;;5035952;28;20060;-76
2021/09/26 04:48:48;;;;;;;30.48;22.27;;;15.20;93.20;;;;;;5035769;28;20143;-76
2021/09/26 04:51:13;;;;;;;33.40;21.02;;;15.20;93.30;;;;;;5036242;28;20065;-75
2021/09/26 04:53:39;;;;;;;34.97;22.70;;;15.20;93.30;;;;;;5035658;28;20025;-76
2021/09/26 04:56:04;;;;;;;28.83;21.40;;;15.30;93.30;;;;;;5034097;28;20539;-75
2021/09/26 04:58:30;;;;;;;28.42;20.42;;;15.30;93.30;;;;;;5035190;28;20474;-75
2021/09/26 05:00:56;;;;;;;29.63;21.70;;;15.20;93.30;;;;;;5034378;28;20075;-75
2021/09/26 05:03:22;;;;;;;28.25;20.55;;;15.30;93.30;;;;;;5034479;28;20096;-76
2021/09/26 05:05:47;;;;;;;26.65;17.95;;;15.30;93.20;;;;;;5035465;28;20458;-75
2021/09/26 05:08:16;;;;;;;29.40;21.23;;;15.30;93.20;;;;;;5034731;28;20478;-75
2021/09/26 05:10:42;;;;;;;27.45;18.83;;;15.30;93.20;;;;;;5034125;28;20075;-76
2021/09/26 05:13:08;;;;;;;29.00;19.15;;;15.30;93.40;;;;;;5035805;28;20026;-75
2021/09/26 05:15:34;;;;;;;29.95;20.75;;;15.30;93.10;;;;;;5034220;28;20025;-75
2021/09/26 05:18:00;;;;;;;28.42;20.20;;;15.30;93.20;;;;;;5034370;28;20025;-76
2021/09/26 05:20:26;;;;;;;29.48;20.23;;;15.30;93.20;;;;;;5036278;28;20033;-76
2021/09/26 05:22:52;;;;;;;28.45;19.38;;;15.40;93.20;;;;;;5039399;28;20026;-75
2021/09/26 05:25:18;;;;;;;29.13;19.70;;;15.40;93.20;;;;;;5039453;28;20021;-76
2021/09/26 05:27:44;;;;;;;27.10;19.48;;;15.40;93.30;;;;;;5038928;28;20033;-74
2021/09/26 05:30:10;;;;;;;27.95;20.52;;;15.40;93.20;;;;;;5037412;28;20030;-75
2021/09/26 05:32:36;;;;;;;26.50;20.27;;;15.50;93.20;;;;;;5054462;28;20012;-75
2021/09/26 05:35:02;;;;;;;26.35;18.83;;;15.50;93.10;;;;;;5042014;28;20029;-76
2021/09/26 05:37:30;;;;;;;26.00;19.83;;;15.50;93.10;;;;;;5035673;28;20026;-76
2021/09/26 05:39:56;;;;;;;26.77;18.88;;;15.50;93.00;;;;;;5035369;28;20049;-75
2021/09/26 05:42:22;;;;;;;25.70;18.88;;;15.60;93.00;;;;;;5034018;28;20064;-75
2021/09/26 05:44:48;;;;;;;28.95;19.95;;;15.60;93.00;;;;;;5033705;28;20072;-76
2021/09/26 05:47:14;;;;;;;30.17;20.88;;;15.60;93.10;;;;;;5035241;28;20029;-76
2021/09/26 05:49:40;;;;;;;27.63;20.25;;;15.60;93.10;;;;;;5034687;28;20053;-76
2021/09/26 05:52:08;;;;;;;24.88;19.02;;;15.60;92.90;;;;;;5035197;28;20029;-75
2021/09/26 05:54:34;;;;;;;28.08;20.20;;;15.70;92.90;;;;;;5033446;28;20108;-74
2021/09/26 05:57:00;;;;;;;30.13;20.10;;;15.70;92.80;;;;;;5034705;28;20528;-73
2021/09/26 05:59:25;;;;;;;31.63;21.45;;;15.70;92.70;;;;;;5033120;28;20042;-75
2021/09/26 06:01:51;;;;;;;27.75;20.33;;;15.80;92.80;;;;;;5034774;28;20075;-76
2021/09/26 06:04:17;;;;;;;32.10;21.17;;;15.70;92.90;;;;;;5035244;28;20037;-76
2021/09/26 06:06:42;;;;;;;26.92;18.73;;;15.80;93.10;;;;;;5034054;28;20021;-76
2021/09/26 06:09:08;;;;;;;31.08;21.50;;;15.80;93.10;;;;;;5035836;28;20367;-77
2021/09/26 06:11:33;;;;;;;29.00;19.85;;;15.80;93.20;;;;;;5034176;28;20359;-78
2021/09/26 06:13:59;;;;;;;28.27;19.90;;;15.80;93.20;;;;;;5033798;28;20017;-78
2021/09/26 06:16:25;;;;;;;28.75;20.23;;;15.80;93.30;;;;;;5034929;28;20029;-78
2021/09/26 06:18:50;;;;;;;26.38;20.80;;;15.80;93.40;;;;;;5034259;28;20030;-76
2021/09/26 06:21:16;;;;;;;31.67;21.67;;;15.80;93.30;;;;;;5034622;28;20028;-77
2021/09/26 06:23:42;;;;;;;26.05;19.88;;;15.80;93.30;;;;;;5035268;28;20029;-76
2021/09/26 06:26:07;;;;;;;32.10;22.63;;;15.90;93.30;;;;;;5034502;28;20091;-77
2021/09/26 06:28:33;;;;;;;27.98;20.83;;;15.80;93.50;;;;;;5033737;28;20093;-76
2021/09/26 06:30:59;;;;;;;32.60;21.92;;;15.90;93.50;;;;;;5033922;28;20025;-74
2021/09/26 06:33:26;;;;;;;26.58;20.05;;;15.90;93.50;;;;;;5033131;28;20040;-75
2021/09/26 06:35:52;;;;;;;32.83;20.70;;;16.00;93.50;;;;;;5032759;28;20534;-76
2021/09/26 06:38:17;;;;;;;30.02;21.65;;;16.00;93.50;;;;;;5034169;28;20113;-76
2021/09/26 06:40:43;;;;;;;32.70;21.63;;;16.10;93.70;;;;;;5032646;28;20026;-77
2021/09/26 06:43:09;;;;;;;28.25;20.13;;;16.10;94.00;;;;;;5032679;28;20032;-77
2021/09/26 06:45:35;;;;;;;25.58;17.63;;;16.10;93.80;;;;;;5034533;28;20097;-75
2021/09/26 06:48:00;;;;;;;24.33;18.58;;;16.10;93.60;;;;;;5034053;28;20029;-75
2021/09/26 06:50:27;;;;;;;32.10;20.95;;;16.20;93.60;;;;;;5034368;28;20493;-74
2021/09/26 06:52:53;;;;;;;27.33;20.63;;;16.20;93.70;;;;;;5033974;28;20031;-75
2021/09/26 06:55:18;;;;;;;25.63;19.00;;;16.20;93.70;;;;;;5034241;28;20108;-76
2021/09/26 06:57:47;;;;;;;27.88;19.75;;;16.30;94.00;;;;;;5032737;28;20029;-77
2021/09/26 07:00:13;;;;;;;25.92;20.52;;;16.40;93.60;;;;;;5034694;28;20386;-76
2021/09/26 07:02:38;;;;;;;33.17;22.17;;;16.40;93.40;;;;;;5032233;28;20074;-77
2021/09/26 07:05:05;;;;;;;29.58;21.25;;;16.50;93.50;;;;;;5032666;28;20462;-77
2021/09/26 07:07:31;;;;;;;36.60;23.50;;;16.50;93.50;;;;;;5032149;28;20425;-75
2021/09/26 07:09:56;;;;;;;29.67;20.20;;;16.50;93.60;;;;;;5033545;28;20037;-76
2021/09/26 07:12:22;;;;;;;28.00;21.23;;;16.60;93.30;;;;;;5032797;28;20068;-76
2021/09/26 07:14:51;;;;;;;27.23;20.17;;;16.70;93.20;;;;;;5032852;28;20116;-76
2021/09/26 07:17:18;;;;;;;28.57;19.83;;;16.70;93.10;;;;;;5035243;28;20525;-76
2021/09/26 07:19:44;;;;;;;29.67;21.00;;;16.80;93.00;;;;;;5043906;28;20092;-77
2021/09/26 07:22:10;;;;;;;28.67;19.70;;;16.90;93.00;;;;;;5044637;28;20395;-76
2021/09/26 07:24:35;;;;;;;29.33;20.55;;;17.00;92.60;;;;;;5049582;28;20093;-76
2021/09/26 07:27:01;;;;;;;23.83;18.67;;;17.00;92.30;;;;;;5040274;28;20465;-77
2021/09/26 07:29:27;;;;;;;22.55;18.88;;;16.90;92.40;;;;;;5032164;28;20025;-76
2021/09/26 07:31:52;;;;;;;27.13;18.50;;;17.00;92.60;;;;;;5033008;28;20485;-77
2021/09/26 07:34:18;;;;;;;25.60;18.90;;;17.00;92.60;;;;;;5031807;28;20021;-77
2021/09/26 07:36:44;;;;;;;25.77;19.48;;;17.00;92.30;;;;;;5031380;28;20056;-78
2021/09/26 07:39:09;;;;;;;25.75;19.42;;;17.00;92.20;;;;;;5033154;28;20374;-76
2021/09/26 07:41:35;;;;;;;25.10;19.25;;;17.00;92.40;;;;;;5032565;28;20048;-76
2021/09/26 07:44:01;;;;;;;23.15;18.15;;;17.10;92.30;;;;;;5033029;28;20096;-76
2021/09/26 07:46:27;;;;;;;26.33;16.13;;;17.10;92.20;;;;;;5032892;28;20524;-76
2021/09/26 07:48:52;;;;;;;22.83;16.63;;;17.20;92.00;;;;;;5031467;28;20116;-76
2021/09/26 07:51:18;;;;;;;23.65;19.70;;;17.20;92.00;;;;;;5031748;28;20114;-77
2021/09/26 07:53:44;;;;;;;17.42;14.27;;;17.20;92.10;;;;;;5031554;28;20017;-76
2021/09/26 07:56:10;;;;;;;23.13;17.52;;;17.30;92.00;;;;;;5031736;28;20084;-76
2021/09/26 07:58:36;;;;;;;23.35;17.13;;;17.50;92.00;;;;;;5031591;28;20053;-76
2021/09/26 08:01:02;;;;;;;23.02;18.58;;;17.60;91.70;;;;;;5031741;28;20029;-75
2021/09/26 08:03:28;;;;;;;20.02;14.65;;;17.70;91.40;;;;;;5031797;28;20068;-77
2021/09/26 08:05:55;;;;;;;22.95;17.17;;;17.80;91.20;;;;;;5031462;28;20033;-77
2021/09/26 08:08:22;;;;;;;20.00;15.18;;;18.00;91.20;;;;;;5033016;28;20049;-76
2021/09/26 08:10:48;;;;;;;13.85;11.30;;;18.00;91.00;;;;;;5035538;28;20033;-77
2021/09/26 08:13:14;;;;;;;21.00;16.52;;;18.10;90.90;;;;;;5037103;28;20386;-76
2021/09/26 08:15:40;;;;;;;21.23;16.45;;;18.10;90.50;;;;;;5036458;28;20022;-77
2021/09/26 08:18:05;;;;;;;20.88;15.55;;;18.20;90.90;;;;;;5035491;28;20037;-77
2021/09/26 08:20:31;;;;;;;21.10;16.23;;;18.40;91.00;;;;;;5037135;28;20040;-77
2021/09/26 08:22:57;;;;;;;24.77;16.42;;;18.70;91.00;;;;;;5036859;28;20091;-77
2021/09/26 08:25:25;;;;;;;16.48;14.02;;;19.10;90.80;;;;;;5037186;28;20026;-77
2021/09/26 08:27:55;;;;;;;16.00;13.40;;;19.40;90.00;;;;;;5036509;28;20029;-77
2021/09/26 08:30:20;;;;;;;24.87;13.97;;;19.70;89.40;;;;;;5048087;28;20022;-77
2021/09/26 08:32:47;;;;;;;19.20;15.38;;;19.90;86.50;;;;;;5040488;28;20489;-77
2021/09/26 08:35:14;;;;;;;28.33;16.15;;;20.00;85.60;;;;;;5035363;28;20025;-77
2021/09/26 08:37:39;;;;;;;18.70;11.95;;;20.10;86.70;;;;;;5036348;28;20036;-76
2021/09/26 08:40:06;;;;;;;16.58;12.70;;;20.30;85.60;;;;;;5034993;28;20025;-76
2021/09/26 08:42:37;;;;;;;18.63;16.13;;;20.50;86.10;;;;;;5036215;28;20033;-77
2021/09/26 08:45:05;;;;;;;16.77;13.93;;;20.70;84.90;;;;;;5036063;28;20068;-76
2021/09/26 08:47:36;;;;;;;16.55;11.77;;;20.90;84.30;;;;;;5036249;28;20079;-77
2021/09/26 08:50:03;;;;;;;17.92;14.02;;;21.10;81.60;;;;;;5034769;28;20136;-77
2021/09/26 08:52:29;;;;;;;12.70;9.77;;;21.20;83.00;;;;;;5034671;28;20517;-77
2021/09/26 08:54:54;;;;;;;14.90;12.57;;;21.30;82.00;;;;;;5034740;28;20076;-76
2021/09/26 08:57:22;;;;;;;13.85;10.88;;;21.40;82.40;;;;;;5036541;28;20027;-76
2021/09/26 08:59:48;;;;;;;17.13;12.20;;;21.50;82.00;;;;;;5034922;28;20537;-77
2021/09/26 09:02:13;;;;;;;14.88;10.88;;;21.60;82.30;;;;;;5035594;28;20071;-78
2021/09/26 09:04:41;;;;;;;12.90;10.35;;;21.50;82.30;;;;;;5036611;28;20474;-76
2021/09/26 09:07:09;;;;;;;15.98;11.23;;;21.50;81.80;;;;;;5037677;28;20021;-77
2021/09/26 09:09:54;;;;;;;14.73;10.60;;;21.60;80.90;;;;;;5039537;28;20056;-77
2021/09/26 09:12:26;;;;;;;10.35;7.72;;;21.80;81.30;;;;;;5049066;28;20313;-79
2021/09/26 09:15:06;;;;;;;15.80;13.20;;;22.00;79.20;;;;;;5048920;28;20035;-78
2021/09/26 09:17:37;;;;;;;14.27;9.80;;;22.10;79.00;;;;;;5057428;28;20025;-78
2021/09/26 09:20:19;;;;;;;16.90;14.45;;;22.10;78.40;;;;;;5036787;28;20029;-76
2021/09/26 09:22:48;;;;;;;15.35;12.75;;;22.20;79.70;;;;;;5034335;28;20022;-77
2021/09/26 09:25:35;;;;;;;16.33;12.25;;;22.30;78.90;;;;;;5034559;28;20026;-78
2021/09/26 09:28:07;;;;;;;14.35;11.20;;;22.40;78.20;;;;;;5034307;28;20025;-76
2021/09/26 09:30:55;;;;;;;14.13;11.73;;;22.50;78.80;;;;;;5035795;28;20025;-78
2021/09/26 09:33:22;;;;;;;17.10;13.52;;;22.70;78.40;;;;;;5034368;28;20029;-77
2021/09/26 09:35:53;;;;;;;16.50;12.43;;;22.80;78.20;;;;;;5033851;28;20034;-78
2021/09/26 09:38:34;;;;;;;17.30;14.73;;;23.00;78.20;;;;;;5035241;28;20129;-77
2021/09/26 09:41:00;;;;;;;18.85;13.30;;;23.10;76.80;;;;;;5033668;28;20017;-77
2021/09/26 09:43:27;;;;;;;16.40;12.15;;;23.20;76.60;;;;;;5034243;28;20040;-76
2021/09/26 09:45:59;;;;;;;16.85;12.00;;;23.20;76.60;;;;;;5033856;28;20368;-77
2021/09/26 09:48:27;;;;;;;18.25;15.10;;;23.30;76.30;;;;;;5034392;28;20245;-77
2021/09/26 09:51:05;;;;;;;14.35;12.65;;;23.30;76.60;;;;;;5033475;28;20032;-76
2021/09/26 09:53:44;;;;;;;14.75;12.48;;;23.40;75.90;;;;;;5034569;28;20043;-77
2021/09/26 09:56:23;;;;;;;11.23;7.68;;;23.50;76.30;;;;;;5033749;28;20036;-75
2021/09/26 09:58:54;;;;;;;15.35;12.77;;;23.80;76.10;;;;;;5033090;28;20037;-76
2021/09/26 10:01:32;;;;;;;14.23;11.68;;;24.00;75.40;;;;;;5033740;28;20061;-76
2021/09/26 10:04:06;;;;;;;18.13;14.68;;;24.00;74.90;;;;;;5033446;28;20025;-79
2021/09/26 10:06:35;;;;;;;15.13;12.45;;;24.00;75.70;;;;;;5033376;28;20022;-77
2021/09/26 10:09:23;;;;;;;17.30;14.52;;;24.10;75.00;;;;;;5034520;28;20118;-76
2021/09/26 10:11:50;;;;;;;17.38;13.73;;;24.20;74.70;;;;;;5033233;28;20078;-76
2021/09/26 10:14:17;;;;;;;14.38;11.35;;;24.30;73.90;;;;;;5034518;28;20070;-76
2021/09/26 10:16:43;;;;;;;18.42;13.75;;;24.50;74.40;;;;;;5034630;28;20032;-76
2021/09/26 10:19:09;;;;;;;17.42;14.77;;;24.70;73.10;;;;;;5032959;28;20026;-77
2021/09/26 10:21:37;;;;;;;17.13;12.27;;;24.60;72.90;;;;;;5034329;28;20048;-76
2021/09/26 10:24:03;;;;;;;15.07;11.88;;;24.50;74.00;;;;;;5034750;28;20030;-76
2021/09/26 10:26:30;;;;;;;14.35;10.70;;;24.50;73.70;;;;;;5033486;28;20103;-76
2021/09/26 10:28:58;;;;;;;18.52;13.93;;;24.60;74.10;;;;;;5034570;28;20033;-77
2021/09/26 10:31:27;;;;;;;16.08;10.50;;;24.70;72.90;;;;;;5036779;28;20025;-77
2021/09/26 10:33:56;;;;;;;17.73;15.83;;;24.60;73.90;;;;;;5036276;28;20045;-75
2021/09/26 10:36:24;;;;;;;19.98;17.00;;;24.50;72.60;;;;;;5033080;28;20268;-76
2021/09/26 10:38:51;;;;;;;20.33;15.45;;;24.20;73.30;;;;;;5033586;28;20034;-77
2021/09/26 10:41:17;;;;;;;15.77;14.07;;;23.90;74.60;;;;;;5032777;28;20048;-75
2021/09/26 10:43:44;;;;;;;18.10;16.20;;;23.80;76.00;;;;;;5032240;28;20029;-76
2021/09/26 10:46:23;;;;;;;20.38;16.58;;;23.70;75.70;;;;;;5033425;28;20101;-76
2021/09/26 10:49:07;;;;;;;18.60;15.75;;;23.70;75.20;;;;;;5033677;28;20053;-77
2021/09/26 10:51:52;;;;;;;18.52;14.77;;;23.60;75.90;;;;;;5035196;28;20033;-75
2021/09/26 10:54:37;;;;;;;18.20;14.35;;;23.70;76.00;;;;;;5036976;28;20087;-76
2021/09/26 10:57:12;;;;;;;20.05;16.00;;;24.00;75.70;;;;;;5035545;28;20022;-76
2021/09/26 10:59:43;;;;;;;15.35;13.05;;;24.30;74.60;;;;;;5032963;28;20545;-76
2021/09/26 11:02:25;;;;;;;19.17;15.82;;;24.50;73.50;;;;;;5032723;28;20140;-76
2021/09/26 11:04:53;;;;;;;14.75;12.75;;;24.60;72.40;;;;;;5036034;28;20107;-76
2021/09/26 11:07:21;;;;;;;10.93;8.80;;;24.80;73.70;;;;;;5037233;28;20139;-76
2021/09/26 11:09:55;;;;;;;18.88;15.93;;;25.00;73.90;;;;;;5040316;28;20045;-75
2021/09/26 11:12:38;;;;;;;17.98;16.08;;;25.20;72.10;;;;;;5034833;28;20029;-76
2021/09/26 11:15:12;;;;;;;18.00;13.80;;;25.20;70.70;;;;;;5031741;28;20136;-76
2021/09/26 11:17:42;;;;;;;17.45;15.40;;;25.30;70.60;;;;;;5032982;28;20022;-76
2021/09/26 11:20:10;;;;;;;16.85;12.32;;;25.50;69.80;;;;;;5031611;28;20017;-76
2021/09/26 11:22:36;;;;;;;22.33;17.35;;;25.60;69.10;;;;;;5031602;28;20358;-75
2021/09/26 11:25:03;;;;;;;12.30;10.23;;;25.50;68.30;;;;;;5033337;28;20022;-75
2021/09/26 11:27:39;;;;;;;16.80;13.93;;;25.50;69.80;;;;;;5031586;28;20075;-76
2021/09/26 11:30:04;;;;;;;12.30;11.05;;;25.50;70.60;;;;;;5031604;28;20413;-76
2021/09/26 11:32:33;;;;;;;21.00;17.63;;;25.50;70.90;;;;;;5031812;28;20034;-76
2021/09/26 11:35:23;;;;;;;17.95;16.05;;;25.70;69.50;;;;;;5031661;28;20091;-75
2021/09/26 11:37:49;;;;;;;;;;;26.10;68.90;;;;;;5032933;28;20026;-76
2021/09/26 11:40:19;;;;;;;16.20;14.48;;;26.30;69.70;;;;;;5031647;28;19908;-77
2021/09/26 11:42:51;;;;;;;16.77;14.43;;;26.40;69.90;;;;;;5030576;28;20458;-75
2021/09/26 11:45:19;;;;;;;18.88;15.38;;;26.40;69.00;;;;;;5031961;28;20098;-77
2021/09/26 11:48:15;;;;;;;15.95;11.90;;;26.40;66.90;;;;;;5031667;28;20021;-75
2021/09/26 11:50:52;;;;;;;10.05;7.70;;;26.30;71.50;;;;;;5031933;28;20041;-75
2021/09/26 11:53:20;;;;;;;18.05;13.73;;;26.10;70.30;;;;;;5031803;28;20018;-76
2021/09/26 11:55:48;;;;;;;19.17;14.90;;;25.80;70.00;;;;;;5032570;28;20063;-76
2021/09/26 11:58:13;;;;;;;16.00;12.27;;;25.50;70.30;;;;;;5031131;28;20037;-75
2021/09/26 12:00:41;;;;;;;13.50;12.02;;;25.30;69.60;;;;;;5032490;28;20030;-76
2021/09/26 12:03:26;;;;;;;15.52;12.00;;;25.50;70.70;;;;;;5031549;28;20450;-76
2021/09/26 12:05:54;;;;;;;15.13;13.07;;;25.60;69.40;;;;;;5032493;28;20021;-76
2021/09/26 12:08:21;;;;;;;15.57;12.77;;;25.50;67.30;;;;;;5031211;28;20017;-76
2021/09/26 12:10:48;;;;;;;14.52;12.88;;;25.40;69.70;;;;;;5030980;28;20029;-75
2021/09/26 12:13:20;;;;;;;12.48;10.55;;;25.40;69.30;;;;;;5031490;28;20165;-76
2021/09/26 12:15:47;;;;;;;18.52;13.88;;;25.60;69.50;;;;;;5032788;28;20042;-76
2021/09/26 12:18:22;;;;;;;15.55;12.73;;;25.80;71.00;;;;;;5031327;28;20021;-76
2021/09/26 12:20:49;;;;;;;15.93;11.38;;;25.90;69.80;;;;;;5031180;28;20060;-77
2021/09/26 12:23:20;;;;;;;14.43;12.13;;;26.20;68.60;;;;;;5030863;28;20021;-76
2021/09/26 12:25:47;;;;;;;17.70;13.70;;;26.20;66.20;;;;;;5032377;28;20497;-75
2021/09/26 12:28:21;;;;;;;13.10;9.90;;;26.00;66.70;;;;;;5032594;28;20022;-75
2021/09/26 12:30:50;;;;;;;13.05;10.43;;;25.90;66.70;;;;;;5031774;28;20028;-77
2021/09/26 12:33:38;;;;;;;14.13;11.33;;;26.00;68.70;;;;;;5032667;28;20033;-75
2021/09/26 12:36:06;;;;;;;17.20;15.32;;;26.20;68.70;;;;;;5038982;28;20025;-76